Pelagitis — SVBC8 — position and weather

sailwx.info

Track history (hours):
 
Tides and Currents Weather Stations Pressure Air Temp Water Temp Dewpoint Dewpoint Depression Visibility Wind Speed Wind Dir Waves Ship Positions

Pelagitis

Last reported at 2017-Oct-23 00:30 UTC. Time now 2017-Oct-23 00:35 UTC.
Position N 37°57' E 023°36'.

Length 151 m; draft 6.7 m.

Type: Cargo ship. MMSI: 241041410.

Date/timePositionNaut miles runAvg speedWind from/ knotsBaromVisibWave heightAir tempDewpointWater temp
2017-Oct-23 00:30N 37°57' E 023°36'0 0.0
2017-Oct-23 00:00N 37°57' E 023°36'0 0.0
2017-Oct-22 23:30N 37°57' E 023°36'0 0.0
2017-Oct-22 23:00N 37°57' E 023°36'0 0.0
2017-Oct-22 22:30N 37°57' E 023°36'0 0.0
2017-Oct-22 22:00N 37°57' E 023°36'0 0.0
2017-Oct-22 21:30N 37°57' E 023°36'0 0.0
2017-Oct-22 21:00N 37°57' E 023°36'0 0.0
2017-Oct-22 20:30N 37°57' E 023°36'0 0.0
2017-Oct-22 20:00N 37°57' E 023°36'0 0.0
2017-Oct-22 19:30N 37°57' E 023°36'0 0.0
2017-Oct-22 19:00N 37°57' E 023°36'0 0.0
2017-Oct-22 18:31N 37°57' E 023°36'0 0.0
2017-Oct-22 18:00N 37°57' E 023°36'0 0.0
2017-Oct-22 17:31N 37°57' E 023°36'0 0.0
2017-Oct-22 17:00N 37°57' E 023°36'0 0.0
2017-Oct-22 16:30N 37°57' E 023°36'0 0.0
2017-Oct-22 16:00N 37°57' E 023°36'0 0.0
2017-Oct-22 15:31N 37°57' E 023°36'0 0.0
2017-Oct-22 15:00N 37°57' E 023°36'0 0.0
2017-Oct-22 14:30N 37°57' E 023°36'0 0.0
2017-Oct-22 14:00N 37°57' E 023°36'0 0.0
2017-Oct-22 13:30N 37°57' E 023°36'0 0.0
2017-Oct-22 13:00N 37°57' E 023°36'0 0.0
2017-Oct-22 12:30N 37°57' E 023°36'0 0.0
2017-Oct-22 12:00N 37°57' E 023°36'0 0.0
2017-Oct-22 11:30N 37°57' E 023°36'0 0.0
2017-Oct-22 11:00N 37°57' E 023°36'0 0.0
2017-Oct-22 10:30N 37°57' E 023°36'0 0.0
2017-Oct-22 10:00N 37°57' E 023°36'0 0.0
2017-Oct-22 09:30N 37°57' E 023°36'0 0.0
2017-Oct-22 09:00N 37°57' E 023°36'0 0.0
2017-Oct-22 08:30N 37°57' E 023°36'0 0.0
2017-Oct-22 08:00N 37°57' E 023°36'0 0.0
2017-Oct-22 07:30N 37°57' E 023°36'0 0.0
2017-Oct-22 07:01N 37°57' E 023°36'0 0.0
2017-Oct-22 06:30N 37°57' E 023°36'3 6.9
2017-Oct-22 06:00N 37°54' E 023°38'815.3
2017-Oct-22 05:30N 37°47' E 023°42'714.6
2017-Oct-22 05:00N 37°41' E 023°47'1414.6
2017-Oct-22 04:01N 37°37' E 024°05'014.9
2017-Oct-22 04:00N 37°37' E 024°05'1113.9
2017-Oct-22 03:14N 37°44' E 024°16'814.7
2017-Oct-22 02:42N 37°49' E 024°23'124 6.1
2017-Oct-21 06:20N 39°32' E 025°52'4015.5
2017-Oct-21 03:44N 39°48' E 025°04'4 2.5
2017-Oct-21 02:11N 39°52' E 025°03'915.3
2017-Oct-21 01:37N 39°52' E 024°52'315.9
2017-Oct-21 01:27N 39°52' E 024°48'716.0
2017-Oct-21 01:00N 39°52' E 024°39'816.1
2017-Oct-21 00:29N 39°53' E 024°28'916.2
2017-Oct-20 23:57N 39°53' E 024°17'716.1
2017-Oct-20 23:30N 39°53' E 024°07'1415.7
2017-Oct-20 22:37N 39°53' E 023°49'215.5
2017-Oct-20 22:30N 39°53' E 023°47'1 0.1
2017-Oct-19 23:10N 39°53' E 023°45'1015.4
2017-Oct-19 22:32N 39°53' E 023°58'115.4
2017-Oct-19 22:30N 39°53' E 023°59'715.2
2017-Oct-19 22:00N 39°53' E 024°08'1015.2
2017-Oct-19 21:19N 39°52' E 024°22'515.1
2017-Oct-19 21:01N 39°52' E 024°28'815.1
2017-Oct-19 20:30N 39°53' E 024°38'815.0
2017-Oct-19 20:00N 39°53' E 024°48'815.4
2017-Oct-19 19:29N 39°53' E 024°58'4 4.5
2017-Oct-19 18:39N 39°52' E 025°03'211.8
2017-Oct-19 18:29N 39°53' E 025°01'142 5.7
2017-Oct-18 17:36N 37°37' E 024°05'516.1
2017-Oct-18 17:16N 37°36' E 023°59'416.4
2017-Oct-18 17:00N 37°38' E 023°54'816.1
2017-Oct-18 16:30N 37°40' E 023°44'815.6
2017-Oct-18 16:00N 37°47' E 023°39'815.7
2017-Oct-18 15:30N 37°54' E 023°36'3 5.2
2017-Oct-18 14:55N 37°57' E 023°36'0 0.0
2017-Oct-18 13:56N 37°57' E 023°36'0 0.0
2017-Oct-18 13:29N 37°57' E 023°36'0 0.0
2017-Oct-18 13:00N 37°57' E 023°36'0 0.0
2017-Oct-18 12:27N 37°57' E 023°36'0 0.0
2017-Oct-18 11:55N 37°57' E 023°36'0 0.0
2017-Oct-18 11:27N 37°57' E 023°36'0 0.0
2017-Oct-18 10:58N 37°57' E 023°36'0 0.0
2017-Oct-18 10:27N 37°57' E 023°36'0 0.0
2017-Oct-18 09:58N 37°57' E 023°36'0 0.0
2017-Oct-18 09:31N 37°57' E 023°36'0 0.0
2017-Oct-18 08:59N 37°57' E 023°36'0 0.0
2017-Oct-18 08:29N 37°57' E 023°36'0 0.0
2017-Oct-18 07:59N 37°57' E 023°36'0 0.0
2017-Oct-18 07:22N 37°57' E 023°36'0 0.0
2017-Oct-18 07:00N 37°57' E 023°36'0 0.0
2017-Oct-18 06:26N 37°57' E 023°36'0 0.0
2017-Oct-18 05:55N 37°57' E 023°36'0 0.0
2017-Oct-18 05:29N 37°57' E 023°36'0 0.0
2017-Oct-18 04:57N 37°57' E 023°36'0 0.0
2017-Oct-18 04:30N 37°57' E 023°36'0 0.3
2017-Oct-18 04:00N 37°57' E 023°36'612.6
2017-Oct-18 03:31N 37°51' E 023°39'815.1
2017-Oct-18 03:01N 37°44' E 023°43'137 6.0
2017-Oct-17 04:03N 35°29' E 024°12'114.2
2017-Oct-17 03:59N 35°29' E 024°13'12414.4
2017-Oct-16 19:20N 37°32' E 023°45'515.8
2017-Oct-16 19:01N 37°37' E 023°44'815.7
2017-Oct-16 18:31N 37°44' E 023°40'815.3
2017-Oct-16 18:00N 37°51' E 023°37'611.8
2017-Oct-16 17:30N 37°57' E 023°36'0 0.2
2017-Oct-16 17:00N 37°57' E 023°36'0 0.0
2017-Oct-16 16:31N 37°57' E 023°36'0 0.0
2017-Oct-16 15:59N 37°57' E 023°36'0 0.0
2017-Oct-16 15:30N 37°57' E 023°36'0 0.0
2017-Oct-16 14:58N 37°57' E 023°36'0 0.0
2017-Oct-16 14:23N 37°57' E 023°36'0 0.0
2017-Oct-16 13:26N 37°57' E 023°36'0 0.0
2017-Oct-16 12:56N 37°57' E 023°36'0 0.0
2017-Oct-16 12:26N 37°57' E 023°36'0 0.0
2017-Oct-16 11:59N 37°57' E 023°36'0 0.0
2017-Oct-16 11:30N 37°57' E 023°36'0 0.0
2017-Oct-16 10:58N 37°57' E 023°36'0 0.0
2017-Oct-16 10:29N 37°57' E 023°36'0 0.0
2017-Oct-16 09:58N 37°57' E 023°36'0 0.0
2017-Oct-16 09:26N 37°57' E 023°36'0 0.0
2017-Oct-16 08:58N 37°57' E 023°36'0 0.0
2017-Oct-16 08:28N 37°57' E 023°36'0 0.0
2017-Oct-16 07:58N 37°57' E 023°36'0 0.0
2017-Oct-16 07:30N 37°57' E 023°36'0 0.0
2017-Oct-16 06:57N 37°57' E 023°36'0 0.0
2017-Oct-16 06:30N 37°57' E 023°36'0 0.0
2017-Oct-16 05:59N 37°57' E 023°36'0 0.0
2017-Oct-16 05:30N 37°57' E 023°36'0 0.0
2017-Oct-16 04:59N 37°57' E 023°36'0 0.0
2017-Oct-16 04:29N 37°57' E 023°36'0 0.0
2017-Oct-16 03:55N 37°57' E 023°36'0 0.0
2017-Oct-16 03:28N 37°57' E 023°36'0 0.0
2017-Oct-16 02:56N 37°57' E 023°36'0 0.0
2017-Oct-16 02:27N 37°57' E 023°36'0 0.0
2017-Oct-16 01:57N 37°57' E 023°36'0 0.0
2017-Oct-16 01:23N 37°57' E 023°36'0 0.0
2017-Oct-16 00:50N 37°57' E 023°36'0 0.0
2017-Oct-16 00:30N 37°57' E 023°36'0 0.0
2017-Oct-16 00:01N 37°57' E 023°36'0 0.0
2017-Oct-15 23:29N 37°57' E 023°36'0 0.0
2017-Oct-15 22:57N 37°57' E 023°36'0 0.0
2017-Oct-15 22:30N 37°57' E 023°36'0 0.0
2017-Oct-15 22:00N 37°57' E 023°36'0 0.0
2017-Oct-15 21:30N 37°57' E 023°36'0 0.0
2017-Oct-15 20:55N 37°57' E 023°36'0 0.0
2017-Oct-15 20:27N 37°57' E 023°36'0 0.0
2017-Oct-15 19:58N 37°57' E 023°36'0 0.0
2017-Oct-15 19:28N 37°57' E 023°36'0 0.0
2017-Oct-15 18:58N 37°57' E 023°36'0 0.0
2017-Oct-15 18:27N 37°57' E 023°36'0 0.0
2017-Oct-15 17:58N 37°57' E 023°36'0 0.0
2017-Oct-15 17:30N 37°57' E 023°36'0 0.0
2017-Oct-15 16:55N 37°57' E 023°36'0 0.0
2017-Oct-15 16:30N 37°57' E 023°36'0 0.0
2017-Oct-15 15:59N 37°57' E 023°36'0 0.0
2017-Oct-15 15:26N 37°57' E 023°36'0 0.0
2017-Oct-15 14:59N 37°57' E 023°36'0 0.0
2017-Oct-15 13:55N 37°57' E 023°36'0 0.0
2017-Oct-15 13:30N 37°57' E 023°36'0 0.0
2017-Oct-15 12:56N 37°57' E 023°36'0 0.0
2017-Oct-15 12:30N 37°57' E 023°36'0 0.0
2017-Oct-15 11:58N 37°57' E 023°36'0 0.0
2017-Oct-15 11:30N 37°57' E 023°36'0 0.0
2017-Oct-15 10:58N 37°57' E 023°36'0 0.0
2017-Oct-15 10:27N 37°57' E 023°36'0 0.0
2017-Oct-15 09:54N 37°57' E 023°36'0 0.0
2017-Oct-15 09:29N 37°57' E 023°36'0 0.0
2017-Oct-15 08:55N 37°57' E 023°36'0 0.0
2017-Oct-15 08:27N 37°57' E 023°36'0 0.0
2017-Oct-15 08:00N 37°57' E 023°36'0 0.0
2017-Oct-15 07:26N 37°57' E 023°36'0 0.0
2017-Oct-15 06:55N 37°57' E 023°36'0 0.0
2017-Oct-15 06:22N 37°57' E 023°36'0 0.0
2017-Oct-15 06:00N 37°57' E 023°36'2 3.8
2017-Oct-15 05:31N 37°55' E 023°37'815.6
2017-Oct-15 05:01N 37°48' E 023°41'815.6
2017-Oct-15 04:30N 37°41' E 023°46'7214.0
2017-Oct-14 23:22N 37°56' E 025°15'616.1
2017-Oct-14 23:00N 37°55' E 025°23'118 5.7
2017-Oct-14 02:27N 39°52' E 025°03'814.4
2017-Oct-14 01:56N 39°53' E 024°53'715.4
2017-Oct-14 01:31N 39°52' E 024°45'815.5
2017-Oct-14 01:00N 39°52' E 024°35'815.3
2017-Oct-14 00:30N 39°53' E 024°25'815.2
2017-Oct-13 23:59N 39°53' E 024°15'  
Track history (hours):
 
Tides and Currents Weather Stations Pressure Air Temp Water Temp Dewpoint Dewpoint Depression Visibility Wind Speed Wind Dir Waves Ship Positions

Pelagitis

Last reported at 2017-Oct-23 00:30 UTC. Time now 2017-Oct-23 00:35 UTC.
Position N 37°57' E 023°36'.

Length 151 m; draft 6.7 m.

Type: Cargo ship. MMSI: 241041410.

Date/timePositionNaut miles runAvg speedWind from/ knotsBaromVisibWave heightAir tempDewpointWater temp
2017-Oct-23 00:30N 37°57' E 023°36'0 0.0
2017-Oct-23 00:00N 37°57' E 023°36'0 0.0
2017-Oct-22 23:30N 37°57' E 023°36'0 0.0
2017-Oct-22 23:00N 37°57' E 023°36'0 0.0
2017-Oct-22 22:30N 37°57' E 023°36'0 0.0
2017-Oct-22 22:00N 37°57' E 023°36'0 0.0
2017-Oct-22 21:30N 37°57' E 023°36'0 0.0
2017-Oct-22 21:00N 37°57' E 023°36'0 0.0
2017-Oct-22 20:30N 37°57' E 023°36'0 0.0
2017-Oct-22 20:00N 37°57' E 023°36'0 0.0
2017-Oct-22 19:30N 37°57' E 023°36'0 0.0
2017-Oct-22 19:00N 37°57' E 023°36'0 0.0
2017-Oct-22 18:31N 37°57' E 023°36'0 0.0
2017-Oct-22 18:00N 37°57' E 023°36'0 0.0
2017-Oct-22 17:31N 37°57' E 023°36'0 0.0
2017-Oct-22 17:00N 37°57' E 023°36'0 0.0
2017-Oct-22 16:30N 37°57' E 023°36'0 0.0
2017-Oct-22 16:00N 37°57' E 023°36'0 0.0
2017-Oct-22 15:31N 37°57' E 023°36'0 0.0
2017-Oct-22 15:00N 37°57' E 023°36'0 0.0
2017-Oct-22 14:30N 37°57' E 023°36'0 0.0
2017-Oct-22 14:00N 37°57' E 023°36'0 0.0
2017-Oct-22 13:30N 37°57' E 023°36'0 0.0
2017-Oct-22 13:00N 37°57' E 023°36'0 0.0
2017-Oct-22 12:30N 37°57' E 023°36'0 0.0
2017-Oct-22 12:00N 37°57' E 023°36'0 0.0
2017-Oct-22 11:30N 37°57' E 023°36'0 0.0
2017-Oct-22 11:00N 37°57' E 023°36'0 0.0
2017-Oct-22 10:30N 37°57' E 023°36'0 0.0
2017-Oct-22 10:00N 37°57' E 023°36'0 0.0
2017-Oct-22 09:30N 37°57' E 023°36'0 0.0
2017-Oct-22 09:00N 37°57' E 023°36'0 0.0
2017-Oct-22 08:30N 37°57' E 023°36'0 0.0
2017-Oct-22 08:00N 37°57' E 023°36'0 0.0
2017-Oct-22 07:30N 37°57' E 023°36'0 0.0
2017-Oct-22 07:01N 37°57' E 023°36'0 0.0
2017-Oct-22 06:30N 37°57' E 023°36'3 6.9
2017-Oct-22 06:00N 37°54' E 023°38'815.3
2017-Oct-22 05:30N 37°47' E 023°42'714.6
2017-Oct-22 05:00N 37°41' E 023°47'1414.6
2017-Oct-22 04:01N 37°37' E 024°05'014.9
2017-Oct-22 04:00N 37°37' E 024°05'1113.9
2017-Oct-22 03:14N 37°44' E 024°16'814.7
2017-Oct-22 02:42N 37°49' E 024°23'124 6.1
2017-Oct-21 06:20N 39°32' E 025°52'4015.5
2017-Oct-21 03:44N 39°48' E 025°04'4 2.5
2017-Oct-21 02:11N 39°52' E 025°03'915.3
2017-Oct-21 01:37N 39°52' E 024°52'315.9
2017-Oct-21 01:27N 39°52' E 024°48'716.0
2017-Oct-21 01:00N 39°52' E 024°39'816.1
2017-Oct-21 00:29N 39°53' E 024°28'916.2
2017-Oct-20 23:57N 39°53' E 024°17'716.1
2017-Oct-20 23:30N 39°53' E 024°07'1415.7
2017-Oct-20 22:37N 39°53' E 023°49'215.5
2017-Oct-20 22:30N 39°53' E 023°47'1 0.1
2017-Oct-19 23:10N 39°53' E 023°45'1015.4
2017-Oct-19 22:32N 39°53' E 023°58'115.4
2017-Oct-19 22:30N 39°53' E 023°59'715.2
2017-Oct-19 22:00N 39°53' E 024°08'1015.2
2017-Oct-19 21:19N 39°52' E 024°22'515.1
2017-Oct-19 21:01N 39°52' E 024°28'815.1
2017-Oct-19 20:30N 39°53' E 024°38'815.0
2017-Oct-19 20:00N 39°53' E 024°48'815.4
2017-Oct-19 19:29N 39°53' E 024°58'4 4.5
2017-Oct-19 18:39N 39°52' E 025°03'211.8
2017-Oct-19 18:29N 39°53' E 025°01'142 5.7
2017-Oct-18 17:36N 37°37' E 024°05'516.1
2017-Oct-18 17:16N 37°36' E 023°59'416.4
2017-Oct-18 17:00N 37°38' E 023°54'816.1
2017-Oct-18 16:30N 37°40' E 023°44'815.6
2017-Oct-18 16:00N 37°47' E 023°39'815.7
2017-Oct-18 15:30N 37°54' E 023°36'3 5.2
2017-Oct-18 14:55N 37°57' E 023°36'0 0.0
2017-Oct-18 13:56N 37°57' E 023°36'0 0.0
2017-Oct-18 13:29N 37°57' E 023°36'0 0.0
2017-Oct-18 13:00N 37°57' E 023°36'0 0.0
2017-Oct-18 12:27N 37°57' E 023°36'0 0.0
2017-Oct-18 11:55N 37°57' E 023°36'0 0.0
2017-Oct-18 11:27N 37°57' E 023°36'0 0.0
2017-Oct-18 10:58N 37°57' E 023°36'0 0.0
2017-Oct-18 10:27N 37°57' E 023°36'0 0.0
2017-Oct-18 09:58N 37°57' E 023°36'0 0.0
2017-Oct-18 09:31N 37°57' E 023°36'0 0.0
2017-Oct-18 08:59N 37°57' E 023°36'0 0.0
2017-Oct-18 08:29N 37°57' E 023°36'0 0.0
2017-Oct-18 07:59N 37°57' E 023°36'0 0.0
2017-Oct-18 07:22N 37°57' E 023°36'0 0.0
2017-Oct-18 07:00N 37°57' E 023°36'0 0.0
2017-Oct-18 06:26N 37°57' E 023°36'0 0.0
2017-Oct-18 05:55N 37°57' E 023°36'0 0.0
2017-Oct-18 05:29N 37°57' E 023°36'0 0.0
2017-Oct-18 04:57N 37°57' E 023°36'0 0.0
2017-Oct-18 04:30N 37°57' E 023°36'0 0.3
2017-Oct-18 04:00N 37°57' E 023°36'612.6
2017-Oct-18 03:31N 37°51' E 023°39'815.1
2017-Oct-18 03:01N 37°44' E 023°43'137 6.0
2017-Oct-17 04:03N 35°29' E 024°12'114.2
2017-Oct-17 03:59N 35°29' E 024°13'12414.4
2017-Oct-16 19:20N 37°32' E 023°45'515.8
2017-Oct-16 19:01N 37°37' E 023°44'815.7
2017-Oct-16 18:31N 37°44' E 023°40'815.3
2017-Oct-16 18:00N 37°51' E 023°37'611.8
2017-Oct-16 17:30N 37°57' E 023°36'0 0.2
2017-Oct-16 17:00N 37°57' E 023°36'0 0.0
2017-Oct-16 16:31N 37°57' E 023°36'0 0.0
2017-Oct-16 15:59N 37°57' E 023°36'0 0.0
2017-Oct-16 15:30N 37°57' E 023°36'0 0.0
2017-Oct-16 14:58N 37°57' E 023°36'0 0.0
2017-Oct-16 14:23N 37°57' E 023°36'0 0.0
2017-Oct-16 13:26N 37°57' E 023°36'0 0.0
2017-Oct-16 12:56N 37°57' E 023°36'0 0.0
2017-Oct-16 12:26N 37°57' E 023°36'0 0.0
2017-Oct-16 11:59N 37°57' E 023°36'0 0.0
2017-Oct-16 11:30N 37°57' E 023°36'0 0.0
2017-Oct-16 10:58N 37°57' E 023°36'0 0.0
2017-Oct-16 10:29N 37°57' E 023°36'0 0.0
2017-Oct-16 09:58N 37°57' E 023°36'0 0.0
2017-Oct-16 09:26N 37°57' E 023°36'0 0.0
2017-Oct-16 08:58N 37°57' E 023°36'0 0.0
2017-Oct-16 08:28N 37°57' E 023°36'0 0.0
2017-Oct-16 07:58N 37°57' E 023°36'0 0.0
2017-Oct-16 07:30N 37°57' E 023°36'0 0.0
2017-Oct-16 06:57N 37°57' E 023°36'0 0.0
2017-Oct-16 06:30N 37°57' E 023°36'0 0.0
2017-Oct-16 05:59N 37°57' E 023°36'0 0.0
2017-Oct-16 05:30N 37°57' E 023°36'0 0.0
2017-Oct-16 04:59N 37°57' E 023°36'0 0.0
2017-Oct-16 04:29N 37°57' E 023°36'0 0.0
2017-Oct-16 03:55N 37°57' E 023°36'0 0.0
2017-Oct-16 03:28N 37°57' E 023°36'0 0.0
2017-Oct-16 02:56N 37°57' E 023°36'0 0.0
2017-Oct-16 02:27N 37°57' E 023°36'0 0.0
2017-Oct-16 01:57N 37°57' E 023°36'0 0.0
2017-Oct-16 01:23N 37°57' E 023°36'0 0.0
2017-Oct-16 00:50N 37°57' E 023°36'0 0.0
2017-Oct-16 00:30N 37°57' E 023°36'0 0.0
2017-Oct-16 00:01N 37°57' E 023°36'0 0.0
2017-Oct-15 23:29N 37°57' E 023°36'0 0.0
2017-Oct-15 22:57N 37°57' E 023°36'0 0.0
2017-Oct-15 22:30N 37°57' E 023°36'0 0.0
2017-Oct-15 22:00N 37°57' E 023°36'0 0.0
2017-Oct-15 21:30N 37°57' E 023°36'0 0.0
2017-Oct-15 20:55N 37°57' E 023°36'0 0.0
2017-Oct-15 20:27N 37°57' E 023°36'0 0.0
2017-Oct-15 19:58N 37°57' E 023°36'0 0.0
2017-Oct-15 19:28N 37°57' E 023°36'0 0.0
2017-Oct-15 18:58N 37°57' E 023°36'0 0.0
2017-Oct-15 18:27N 37°57' E 023°36'0 0.0
2017-Oct-15 17:58N 37°57' E 023°36'0 0.0
2017-Oct-15 17:30N 37°57' E 023°36'0 0.0
2017-Oct-15 16:55N 37°57' E 023°36'0 0.0
2017-Oct-15 16:30N 37°57' E 023°36'0 0.0
2017-Oct-15 15:59N 37°57' E 023°36'0 0.0
2017-Oct-15 15:26N 37°57' E 023°36'0 0.0
2017-Oct-15 14:59N 37°57' E 023°36'0 0.0
2017-Oct-15 13:55N 37°57' E 023°36'0 0.0
2017-Oct-15 13:30N 37°57' E 023°36'0 0.0
2017-Oct-15 12:56N 37°57' E 023°36'0 0.0
2017-Oct-15 12:30N 37°57' E 023°36'0 0.0
2017-Oct-15 11:58N 37°57' E 023°36'0 0.0
2017-Oct-15 11:30N 37°57' E 023°36'0 0.0
2017-Oct-15 10:58N 37°57' E 023°36'0 0.0
2017-Oct-15 10:27N 37°57' E 023°36'0 0.0
2017-Oct-15 09:54N 37°57' E 023°36'0 0.0
2017-Oct-15 09:29N 37°57' E 023°36'0 0.0
2017-Oct-15 08:55N 37°57' E 023°36'0 0.0
2017-Oct-15 08:27N 37°57' E 023°36'0 0.0
2017-Oct-15 08:00N 37°57' E 023°36'0 0.0
2017-Oct-15 07:26N 37°57' E 023°36'0 0.0
2017-Oct-15 06:55N 37°57' E 023°36'0 0.0
2017-Oct-15 06:22N 37°57' E 023°36'0 0.0
2017-Oct-15 06:00N 37°57' E 023°36'2 3.8
2017-Oct-15 05:31N 37°55' E 023°37'815.6
2017-Oct-15 05:01N 37°48' E 023°41'815.6
2017-Oct-15 04:30N 37°41' E 023°46'7214.0
2017-Oct-14 23:22N 37°56' E 025°15'616.1
2017-Oct-14 23:00N 37°55' E 025°23'118 5.7
2017-Oct-14 02:27N 39°52' E 025°03'814.4
2017-Oct-14 01:56N 39°53' E 024°53'715.4
2017-Oct-14 01:31N 39°52' E 024°45'815.5
2017-Oct-14 01:00N 39°52' E 024°35'815.3
2017-Oct-14 00:30N 39°53' E 024°25'815.2
2017-Oct-13 23:59N 39°53' E 024°15'  

Dump ship's entire track history